TimeEDT,TemperatureF,Dew PointF,Humidity,Sea Level PressureIn,VisibilityMPH,Wind Direction,Wind SpeedMPH,Gust SpeedMPH,PrecipitationIn,Events,Conditions,WindDirDegrees,DateUTC
12:06 AM,57.2,53.6,88,29.96,9.0,Calm,Calm,-,N/A,,Scattered Clouds,0,2012-10-06 04:06:00
12:19 AM,55.4,51.8,88,29.96,9.0,Calm,Calm,-,N/A,,Mostly Cloudy,0,2012-10-06 04:19:00
12:33 AM,55.4,53.6,94,29.95,8.0,Calm,Calm,-,N/A,,Scattered Clouds,0,2012-10-06 04:33:00
12:44 AM,57.2,53.6,88,29.95,8.0,Calm,Calm,-,N/A,,Mostly Cloudy,0,2012-10-06 04:44:00
12:53 AM,57.0,54.0,89,29.95,9.0,Calm,Calm,-,N/A,,Scattered Clouds,0,2012-10-06 04:53:00
1:53 AM,55.9,53.1,90,29.93,5.0,Calm,Calm,-,N/A,,Mostly Cloudy,0,2012-10-06 05:53:00
2:05 AM,55.4,53.6,94,29.93,1.8,Calm,Calm,-,N/A,,Mostly Cloudy,0,2012-10-06 06:05:00
2:16 AM,55.4,53.6,94,29.93,3.0,Calm,Calm,-,N/A,,Mostly Cloudy,0,2012-10-06 06:16:00
2:53 AM,54.0,51.1,90,29.91,7.0,Calm,Calm,-,N/A,,Mostly Cloudy,0,2012-10-06 06:53:00
3:08 AM,53.6,51.8,94,29.91,7.0,Calm,Calm,-,N/A,,Scattered Clouds,0,2012-10-06 07:08:00
3:53 AM,54.0,52.0,93,29.91,6.0,Calm,Calm,-,N/A,,Partly Cloudy,0,2012-10-06 07:53:00
4:05 AM,53.6,51.8,94,29.91,2.0,Calm,Calm,-,N/A,,Clear,0,2012-10-06 08:05:00
4:16 AM,53.6,51.8,94,29.91,4.0,Calm,Calm,-,N/A,,Clear,0,2012-10-06 08:16:00
4:53 AM,54.0,51.1,90,29.91,6.0,Calm,Calm,-,N/A,,Clear,0,2012-10-06 08:53:00
4:59 AM,53.6,51.8,94,29.90,1.8,Calm,Calm,-,N/A,,Partly Cloudy,0,2012-10-06 08:59:00
5:11 AM,53.6,50.0,88,29.90,3.0,Calm,Calm,-,N/A,,Scattered Clouds,0,2012-10-06 09:11:00
5:13 AM,53.6,50.0,88,29.90,1.2,Calm,Calm,-,N/A,,Scattered Clouds,0,2012-10-06 09:13:00
5:20 AM,53.6,50.0,88,29.91,0.8,Calm,Calm,-,N/A,,Mist,0,2012-10-06 09:20:00
5:25 AM,53.6,50.0,88,29.91,2.5,Calm,Calm,-,N/A,,Mostly Cloudy,0,2012-10-06 09:25:00
5:32 AM,53.6,51.8,94,29.90,7.0,Calm,Calm,-,N/A,,Mostly Cloudy,0,2012-10-06 09:32:00
5:43 AM,53.6,51.8,94,29.90,1.8,Calm,Calm,-,N/A,,Mostly Cloudy,0,2012-10-06 09:43:00
5:53 AM,54.0,51.1,90,29.91,1.0,Calm,Calm,-,N/A,,Mist,0,2012-10-06 09:53:00
5:57 AM,53.6,50.0,88,29.91,4.0,Calm,Calm,-,N/A,,Overcast,0,2012-10-06 09:57:00
6:23 AM,53.6,50.0,88,29.90,1.5,Calm,Calm,-,N/A,,Mostly Cloudy,0,2012-10-06 10:23:00
6:27 AM,53.6,50.0,88,29.90,2.0,Calm,Calm,-,N/A,,Scattered Clouds,0,2012-10-06 10:27:00
6:35 AM,53.6,50.0,88,29.90,6.0,Calm,Calm,-,N/A,,Scattered Clouds,0,2012-10-06 10:35:00
6:53 AM,53.1,50.0,89,29.90,6.0,Calm,Calm,-,N/A,,Mostly Cloudy,0,2012-10-06 10:53:00
7:06 AM,53.6,51.8,94,29.90,1.5,Calm,Calm,-,N/A,,Mostly Cloudy,0,2012-10-06 11:06:00
7:11 AM,53.6,51.8,94,29.89,0.2,Calm,Calm,-,N/A,Fog,Fog,0,2012-10-06 11:11:00
7:26 AM,55.4,53.6,94,29.90,1.0,Calm,Calm,-,N/A,,Mist,0,2012-10-06 11:26:00
7:28 AM,57.2,53.6,88,29.89,2.0,Calm,Calm,-,N/A,,Scattered Clouds,0,2012-10-06 11:28:00
7:34 AM,57.2,55.4,94,29.89,1.0,South,3.5,-,N/A,,Mist,180,2012-10-06 11:34:00
7:39 AM,57.2,55.4,94,29.89,0.8,South,3.5,-,N/A,,Clear,190,2012-10-06 11:39:00
7:45 AM,62.6,59.0,88,29.89,2.0,South,4.6,-,N/A,,Clear,190,2012-10-06 11:45:00
7:53 AM,66.0,63.0,90,29.89,5.0,SSW,4.6,-,N/A,,Clear,200,2012-10-06 11:53:00
8:53 AM,70.0,64.9,84,29.88,9.0,SSW,6.9,-,N/A,,Clear,210,2012-10-06 12:53:00